Time,TemperatureF,DewpointF,PressureIn,WindDirection,WindDirectionDegrees,WindSpeedMPH,WindSpeedGustMPH,Humidity,HourlyPrecipIn,Conditions,Clouds,dailyrainin,SoftwareType,DateUTC
2013-06-06 00:03:00,60.9,51.0,30.05,SE,139,1.0,-999.0,71,-99.99,,,0.00,weatherlink.com 1.10,2013-06-06 04:03:00,
2013-06-06 00:18:00,60.7,52.0,30.05,SE,137,6.0,-999.0,74,-99.99,,,0.00,weatherlink.com 1.10,2013-06-06 04:18:00,
2013-06-06 00:33:00,60.4,53.0,30.05,SSE,147,2.0,-999.0,76,-99.99,,,0.00,weatherlink.com 1.10,2013-06-06 04:33:00,
2013-06-06 00:48:00,60.2,54.0,30.05,SE,142,0.0,-999.0,79,-99.99,,,0.00,weatherlink.com 1.10,2013-06-06 04:48:00,
2013-06-06 01:04:00,60.2,54.0,30.05,SSE,164,0.0,-999.0,80,-99.99,,,0.00,weatherlink.com 1.10,2013-06-06 05:04:00,
2013-06-06 01:18:00,60.2,54.0,30.06,SSE,152,2.0,-999.0,80,-99.99,,,0.00,weatherlink.com 1.10,2013-06-06 05:18:00,
2013-06-06 01:34:00,60.4,54.0,30.06,SE,124,5.0,-999.0,80,-99.99,,,0.00,weatherlink.com 1.10,2013-06-06 05:34:00,
2013-06-06 01:48:00,60.2,54.0,30.05,ESE,118,4.0,-999.0,81,-99.99,,,0.00,weatherlink.com 1.10,2013-06-06 05:48:00,
2013-06-06 02:04:00,59.5,54.0,30.05,ESE,121,0.0,-999.0,82,-99.99,,,0.00,weatherlink.com 1.10,2013-06-06 06:04:00,
2013-06-06 02:19:00,59.3,54.0,30.05,ESE,121,0.0,-999.0,81,-99.99,,,0.00,weatherlink.com 1.10,2013-06-06 06:19:00,
2013-06-06 02:33:00,59.1,53.0,30.05,SE,137,0.0,-999.0,81,-99.99,,,0.00,weatherlink.com 1.10,2013-06-06 06:33:00,
2013-06-06 02:48:00,58.6,53.0,30.04,ESE,111,0.0,-999.0,82,-99.99,,,0.00,weatherlink.com 1.10,2013-06-06 06:48:00,
2013-06-06 03:03:00,58.3,53.0,30.04,ESE,111,0.0,-999.0,83,-99.99,,,0.00,weatherlink.com 1.10,2013-06-06 07:03:00,
2013-06-06 03:18:00,58.0,53.0,30.04,ESE,111,2.0,-999.0,84,-99.99,,,0.00,weatherlink.com 1.10,2013-06-06 07:18:00,
2013-06-06 03:33:00,58.2,53.0,30.03,ESE,122,2.0,-999.0,84,-99.99,,,0.00,weatherlink.com 1.10,2013-06-06 07:33:00,
2013-06-06 03:48:00,58.2,53.0,30.03,ESE,123,0.0,-999.0,84,-99.99,,,0.00,weatherlink.com 1.10,2013-06-06 07:48:00,
2013-06-06 04:03:00,57.9,53.0,30.03,ESE,123,0.0,-999.0,84,-99.99,,,0.00,weatherlink.com 1.10,2013-06-06 08:03:00,
2013-06-06 04:19:00,57.8,53.0,30.03,ESE,123,0.0,-999.0,84,-99.99,,,0.00,weatherlink.com 1.10,2013-06-06 08:19:00,
2013-06-06 04:33:00,57.5,53.0,30.03,ESE,114,2.0,-999.0,85,-99.99,,,0.00,weatherlink.com 1.10,2013-06-06 08:33:00,
2013-06-06 04:48:00,57.5,53.0,30.02,ESE,110,0.0,-999.0,85,-99.99,,,0.00,weatherlink.com 1.10,2013-06-06 08:48:00,
2013-06-06 05:03:00,57.3,53.0,30.02,ESE,115,0.0,-999.0,86,-99.99,,,0.00,weatherlink.com 1.10,2013-06-06 09:03:00,
2013-06-06 05:18:00,57.1,53.0,30.02,ESE,115,0.0,-999.0,86,-99.99,,,0.00,weatherlink.com 1.10,2013-06-06 09:18:00,
2013-06-06 05:34:00,56.8,53.0,30.02,ESE,115,2.0,-999.0,87,-99.99,,,0.00,weatherlink.com 1.10,2013-06-06 09:34:00,
2013-06-06 05:48:00,56.6,54.0,30.02,ESE,107,4.0,-999.0,89,-99.99,,,0.00,weatherlink.com 1.10,2013-06-06 09:48:00,
2013-06-06 06:03:00,56.5,54.0,30.02,SE,133,0.0,-999.0,90,-99.99,,,0.00,weatherlink.com 1.10,2013-06-06 10:03:00,
2013-06-06 06:18:00,56.6,54.0,30.02,ESE,119,0.0,-999.0,91,-99.99,,,0.00,weatherlink.com 1.10,2013-06-06 10:18:00,
2013-06-06 06:33:00,57.0,55.0,30.02,ESE,119,1.0,-999.0,91,-99.99,,,0.00,weatherlink.com 1.10,2013-06-06 10:33:00,
2013-06-06 06:48:00,57.8,55.0,30.03,ESE,119,0.0,-999.0,90,-99.99,,,0.00,weatherlink.com 1.10,2013-06-06 10:48:00,
2013-06-06 07:03:00,59.3,56.0,30.04,SE,142,6.0,-999.0,87,-99.99,,,0.00,weatherlink.com 1.10,2013-06-06 11:03:00,
2013-06-06 07:18:00,60.4,56.0,30.03,SE,126,0.0,-999.0,85,-99.99,,,0.00,weatherlink.com 1.10,2013-06-06 11:18:00,
2013-06-06 07:33:00,61.9,56.0,30.03,ESE,122,6.0,-999.0,80,-99.99,,,0.00,weatherlink.com 1.10,2013-06-06 11:33:00,
2013-06-06 07:49:00,62.6,55.0,30.02,SE,144,7.0,-999.0,76,-99.99,,,0.00,weatherlink.com 1.10,2013-06-06 11:49:00,
2013-06-06 08:03:00,63.0,56.0,30.03,SE,134,2.0,-999.0,77,-99.99,,,0.00,weatherlink.com 1.10,2013-06-06 12:03:00,
2013-06-06 08:18:00,63.3,56.0,30.02,SSE,163,0.0,-999.0,77,-99.99,,,0.00,weatherlink.com 1.10,2013-06-06 12:18:00,
2013-06-06 08:34:00,63.1,56.0,30.02,SSW,192,1.0,-999.0,78,-99.99,,,0.00,weatherlink.com 1.10,2013-06-06 12:34:00,
2013-06-06 08:48:00,64.0,57.0,30.02,South,180,0.0,-999.0,77,-99.99,,,0.00,weatherlink.com 1.10,2013-06-06 12:48:00,
2013-06-06 09:03:00,64.3,57.0,30.01,SE,134,6.0,-999.0,76,-99.99,,,0.00,weatherlink.com 1.10,2013-06-06 13:03:00,
2013-06-06 09:18:00,64.4,57.0,30.02,SE,136,5.0,-999.0,78,-99.99,,,0.00,weatherlink.com 1.10,2013-06-06 13:18:00,
2013-06-06 09:33:00,65.0,57.0,30.01,SE,142,5.0,-999.0,76,-99.99,,,0.00,weatherlink.com 1.10,2013-06-06 13:33:00,
2013-06-06 09:48:00,65.2,57.0,30.01,South,180,3.0,-999.0,75,-99.99,,,0.00,weatherlink.com 1.10,2013-06-06 13:48:00,
2013-06-06 10:04:00,65.4,56.0,29.99,SE,139,2.0,-999.0,72,-99.99,,,0.00,weatherlink.com 1.10,2013-06-06 14:04:00,
2013-06-06 10:18:00,66.2,57.0,30.00,SE,140,10.0,-999.0,71,-99.99,,,0.00,weatherlink.com 1.10,2013-06-06 14:18:00,
2013-06-06 10:33:00,67.4,58.0,29.99,SE,135,12.0,-999.0,72,-99.99,,,0.00,weatherlink.com 1.10,2013-06-06 14:33:00,
2013-06-06 10:49:00,67.6,57.0,29.99,SSE,151,6.0,-999.0,69,-99.99,,,0.00,weatherlink.com 1.10,2013-06-06 14:49:00,
2013-06-06 11:03:00,67.9,57.0,29.99,ESE,117,5.0,-999.0,68,-99.99,,,0.00,weatherlink.com 1.10,2013-06-06 15:03:00,
2013-06-06 11:19:00,68.1,56.0,29.99,SE,129,6.0,-999.0,66,-99.99,,,0.00,weatherlink.com 1.10,2013-06-06 15:19:00,
2013-06-06 11:34:00,67.8,54.0,29.99,SSE,149,11.0,-999.0,61,-99.99,,,0.00,weatherlink.com 1.10,2013-06-06 15:34:00,
2013-06-06 11:49:00,67.8,53.0,29.99,SE,130,4.0,-999.0,60,-99.99,,,0.00,weatherlink.com 1.10,2013-06-06 15:49:00,
2013-06-06 12:03:00,69.4,56.0,29.99,SSE,167,4.0,-999.0,63,-99.99,,,0.00,weatherlink.com 1.10,2013-06-06 16:03:00,
2013-06-06 12:19:00,69.6,55.0,29.98,SSE,165,5.0,-999.0,60,-99.99,,,0.00,weatherlink.com 1.10,2013-06-06 16:19:00,
2013-06-06 12:34:00,69.8,54.0,29.98,SE,134,2.0,-999.0,57,-99.99,,,0.00,weatherlink.com 1.10,2013-06-06 16:34:00,
2013-06-06 12:49:00,69.3,53.0,29.97,SSE,155,12.0,-999.0,57,-99.99,,,0.00,weatherlink.com 1.10,2013-06-06 16:49:00,
2013-06-06 13:04:00,69.2,55.0,29.96,South,169,2.0,-999.0,60,-99.99,,,0.00,weatherlink.com 1.10,2013-06-06 17:04:00,
2013-06-06 13:18:00,69.2,55.0,29.96,SE,135,8.0,-999.0,60,-99.99,,,0.00,weatherlink.com 1.10,2013-06-06 17:18:00,
2013-06-06 13:34:00,69.0,56.0,29.95,SSE,153,5.0,-999.0,64,-99.99,,,0.00,weatherlink.com 1.10,2013-06-06 17:34:00,
2013-06-06 13:49:00,69.0,58.0,29.95,ESE,107,4.0,-999.0,68,-99.99,,,0.00,weatherlink.com 1.10,2013-06-06 17:49:00,
2013-06-06 14:04:00,69.1,59.0,29.95,East,99,8.0,-999.0,70,-99.99,,,0.00,weatherlink.com 1.10,2013-06-06 18:04:00,
2013-06-06 14:19:00,69.7,60.0,29.95,SE,141,10.0,-999.0,70,-99.99,,,0.00,weatherlink.com 1.10,2013-06-06 18:19:00,
2013-06-06 14:34:00,69.4,60.0,29.94,East,98,7.0,-999.0,71,-99.99,,,0.00,weatherlink.com 1.10,2013-06-06 18:34:00,
2013-06-06 14:49:00,69.0,59.0,29.94,SE,126,5.0,-999.0,71,-99.99,,,0.00,weatherlink.com 1.10,2013-06-06 18:49:00,
2013-06-06 15:03:00,68.3,58.0,29.93,SE,143,4.0,-999.0,70,-99.99,,,0.00,weatherlink.com 1.10,2013-06-06 19:03:00,
2013-06-06 15:19:00,68.2,57.0,29.93,ESE,117,4.0,-999.0,67,-99.99,,,0.00,weatherlink.com 1.10,2013-06-06 19:19:00,
2013-06-06 15:34:00,68.0,56.0,29.93,ESE,105,5.0,-999.0,65,-99.99,,,0.00,weatherlink.com 1.10,2013-06-06 19:34:00,
2013-06-06 15:49:00,68.0,56.0,29.92,ESE,121,6.0,-999.0,66,-99.99,,,0.00,weatherlink.com 1.10,2013-06-06 19:49:00,
2013-06-06 16:04:00,67.7,57.0,29.91,ESE,109,7.0,-999.0,68,-99.99,,,0.00,weatherlink.com 1.10,2013-06-06 20:04:00,
2013-06-06 16:19:00,67.6,58.0,29.91,SE,146,11.0,-999.0,71,-99.99,,,0.00,weatherlink.com 1.10,2013-06-06 20:19:00,
2013-06-06 16:34:00,67.4,58.0,29.91,SSW,192,7.0,-999.0,72,-99.99,,,0.00,weatherlink.com 1.10,2013-06-06 20:34:00,
2013-06-06 16:49:00,67.3,58.0,29.91,SSE,160,9.0,-999.0,71,-99.99,,,0.00,weatherlink.com 1.10,2013-06-06 20:49:00,
2013-06-06 17:04:00,67.3,58.0,29.91,SE,137,4.0,-999.0,71,-99.99,,,0.00,weatherlink.com 1.10,2013-06-06 21:04:00,
2013-06-06 17:19:00,65.8,58.0,29.91,SE,129,8.0,-999.0,77,-99.99,,,0.00,weatherlink.com 1.10,2013-06-06 21:19:00,
2013-06-06 17:34:00,66.2,59.0,29.90,ESE,121,5.0,-999.0,78,-99.99,,,0.00,weatherlink.com 1.10,2013-06-06 21:34:00,
2013-06-06 17:49:00,66.8,60.0,29.90,ESE,121,6.0,-999.0,79,-99.99,,,0.00,weatherlink.com 1.10,2013-06-06 21:49:00,
2013-06-06 18:04:00,67.1,61.0,29.90,ESE,109,5.0,-999.0,80,-99.99,,,0.00,weatherlink.com 1.10,2013-06-06 22:04:00,
2013-06-06 18:19:00,67.1,61.0,29.90,SSE,159,9.0,-999.0,82,-99.99,,,0.00,weatherlink.com 1.10,2013-06-06 22:19:00,
2013-06-06 18:34:00,66.2,62.0,29.91,SE,134,11.0,-999.0,85,-99.99,,,0.01,weatherlink.com 1.10,2013-06-06 22:34:00,
2013-06-06 18:49:00,65.4,62.0,29.91,SE,141,7.0,-999.0,88,-99.99,,,0.01,weatherlink.com 1.10,2013-06-06 22:49:00,
2013-06-06 19:04:00,64.9,62.0,29.91,ESE,109,2.0,-999.0,90,-99.99,,,0.01,weatherlink.com 1.10,2013-06-06 23:04:00,
2013-06-06 19:19:00,64.6,62.0,29.91,ESE,107,6.0,-999.0,91,-99.99,,,0.02,weatherlink.com 1.10,2013-06-06 23:19:00,
2013-06-06 19:34:00,64.3,62.0,29.91,SE,125,9.0,-999.0,92,-99.99,,,0.02,weatherlink.com 1.10,2013-06-06 23:34:00,
2013-06-06 19:49:00,64.2,62.0,29.91,ESE,107,4.0,-999.0,93,-99.99,,,0.02,weatherlink.com 1.10,2013-06-06 23:49:00,
2013-06-06 20:04:00,64.1,62.0,29.90,SE,140,0.0,-999.0,93,-99.99,,,0.02,weatherlink.com 1.10,2013-06-07 00:04:00,
2013-06-06 20:19:00,64.1,62.0,29.91,SE,145,1.0,-999.0,94,-99.99,,,0.03,weatherlink.com 1.10,2013-06-07 00:19:00,
2013-06-06 20:34:00,64.1,62.0,29.90,SE,135,6.0,-999.0,94,-99.99,,,0.03,weatherlink.com 1.10,2013-06-07 00:34:00,
2013-06-06 20:49:00,64.3,63.0,29.89,ESE,109,4.0,-999.0,95,-99.99,,,0.03,weatherlink.com 1.10,2013-06-07 00:49:00,
2013-06-06 21:04:00,64.4,63.0,29.89,ESE,122,2.0,-999.0,95,-99.99,,,0.03,weatherlink.com 1.10,2013-06-07 01:04:00,
2013-06-06 21:19:00,64.4,63.0,29.88,East,93,0.0,-999.0,95,-99.99,,,0.03,weatherlink.com 1.10,2013-06-07 01:19:00,
2013-06-06 21:34:00,64.4,63.0,29.89,SE,128,12.0,-999.0,95,-99.99,,,0.03,weatherlink.com 1.10,2013-06-07 01:34:00,
2013-06-06 21:49:00,64.2,63.0,29.89,SSE,160,5.0,-999.0,95,-99.99,,,0.03,weatherlink.com 1.10,2013-06-07 01:49:00,
2013-06-06 22:04:00,64.4,63.0,29.88,ESE,114,6.0,-999.0,95,-99.99,,,0.03,weatherlink.com 1.10,2013-06-07 02:04:00,
2013-06-06 22:19:00,64.4,63.0,29.89,SE,128,0.0,-999.0,95,-99.99,,,0.03,weatherlink.com 1.10,2013-06-07 02:19:00,
2013-06-06 22:34:00,64.4,63.0,29.89,SSE,150,6.0,-999.0,95,-99.99,,,0.03,weatherlink.com 1.10,2013-06-07 02:34:00,
2013-06-06 22:50:00,64.5,63.0,29.89,SSE,161,7.0,-999.0,95,-99.99,,,0.04,weatherlink.com 1.10,2013-06-07 02:50:00,
2013-06-06 23:04:00,64.5,63.0,29.89,SSW,206,2.0,-999.0,95,-99.99,,,0.04,weatherlink.com 1.10,2013-06-07 03:04:00,
2013-06-06 23:19:00,64.3,63.0,29.89,SSE,150,5.0,-999.0,95,-99.99,,,0.04,weatherlink.com 1.10,2013-06-07 03:19:00,
2013-06-06 23:34:00,63.9,63.0,29.88,SE,140,5.0,-999.0,95,-99.99,,,0.04,weatherlink.com 1.10,2013-06-07 03:34:00,
2013-06-06 23:49:00,63.3,62.0,29.88,ESE,121,4.0,-999.0,94,-99.99,,,0.04,weatherlink.com 1.10,2013-06-07 03:49:00,